createdAt,value
2023-01-13T00:01:55.407Z,3.20
2023-01-13T00:06:57.914Z,3.05
2023-01-13T00:12:00.612Z,3.80
2023-01-13T00:17:04.734Z,4.87
2023-01-13T00:22:07.522Z,5.13
2023-01-13T00:27:10.030Z,4.25
2023-01-13T00:32:14.126Z,4.37
2023-01-13T00:37:16.800Z,4.22
2023-01-13T00:42:36.949Z,5.07
2023-01-13T00:47:40.761Z,4.05
2023-01-13T00:52:43.174Z,5.65
2023-01-13T00:57:45.593Z,4.57
2023-01-13T01:02:49.391Z,4.82
2023-01-13T01:07:51.827Z,4.43
2023-01-13T01:12:54.236Z,5.03
2023-01-13T01:17:57.977Z,4.88
2023-01-13T01:23:00.845Z,4.93
2023-01-13T01:28:03.320Z,4.60
2023-01-13T01:33:07.130Z,4.47
2023-01-13T01:38:09.655Z,4.82
2023-01-13T01:43:32.806Z,5.10
2023-01-13T01:48:38.644Z,5.00
2023-01-13T01:53:41.825Z,4.95
2023-01-13T01:58:47.094Z,5.32
2023-01-13T02:03:56.312Z,6.85
2023-01-13T02:08:59.316Z,6.05
2023-01-13T02:14:01.748Z,5.43
2023-01-13T02:19:08.547Z,6.68
2023-01-13T02:24:37.858Z,5.40
2023-01-13T02:30:07.208Z,6.88
2023-01-13T02:35:14.374Z,6.60
2023-01-13T02:40:20.930Z,6.13
2023-01-13T02:45:26.590Z,7.47
2023-01-13T02:50:31.903Z,5.95
2023-01-13T02:55:36.289Z,6.35
2023-01-13T03:00:40.255Z,6.78
2023-01-13T03:05:43.468Z,5.75
2023-01-13T03:10:51.726Z,5.22
2023-01-13T03:16:06.917Z,5.43
2023-01-13T03:21:13.236Z,7.07
2023-01-13T03:26:17.402Z,5.00
2023-01-13T03:31:23.650Z,5.30
2023-01-13T03:36:27.787Z,5.32
2023-01-13T03:41:31.602Z,5.90
2023-01-13T03:46:39.876Z,5.32
2023-01-13T03:51:44.566Z,5.97
2023-01-13T03:56:48.283Z,5.20
2023-01-13T04:01:55.333Z,5.20
2023-01-13T04:07:02.145Z,4.97
2023-01-13T04:12:08.662Z,6.10
2023-01-13T04:17:12.484Z,6.32
2023-01-13T04:22:14.896Z,4.20
2023-01-13T04:27:17.368Z,5.30
2023-01-13T04:32:21.216Z,5.00
2023-01-13T04:37:23.654Z,6.68
2023-01-13T04:42:26.444Z,4.93
2023-01-13T04:47:30.213Z,4.97
2023-01-13T04:52:32.658Z,6.05
2023-01-13T04:57:35.209Z,5.00
2023-01-13T05:02:39.007Z,5.13
2023-01-13T05:07:41.445Z,6.43
2023-01-13T05:13:01.459Z,5.00
2023-01-13T05:18:05.505Z,5.35
2023-01-13T05:23:25.770Z,5.88
2023-01-13T05:28:31.992Z,4.47
2023-01-13T05:33:36.599Z,3.42
2023-01-13T05:38:39.018Z,3.25
2023-01-13T05:43:41.524Z,3.17
2023-01-13T05:48:45.509Z,2.50
2023-01-13T05:53:47.944Z,2.85
2023-01-13T05:58:50.387Z,3.15
2023-01-13T06:03:54.145Z,2.40
2023-01-13T06:08:56.856Z,2.80
2023-01-13T06:13:59.331Z,1.83
2023-01-13T06:19:03.064Z,3.20
2023-01-13T06:24:06.162Z,2.63
2023-01-13T06:29:10.077Z,2.78
2023-01-13T06:34:15.404Z,2.22
2023-01-13T06:39:19.642Z,3.40
2023-01-13T06:44:22.725Z,2.28
2023-01-13T06:49:26.487Z,3.72
2023-01-13T06:54:28.890Z,2.65
2023-01-13T06:59:34.255Z,2.80
2023-01-13T07:04:38.038Z,2.58
2023-01-13T07:09:40.536Z,4.43
2023-01-13T07:15:00.409Z,3.42
2023-01-13T07:20:04.371Z,3.13
2023-01-13T07:25:07.404Z,3.38
2023-01-13T07:30:10.545Z,3.80
2023-01-13T07:35:14.416Z,3.83
2023-01-13T07:40:17.047Z,3.45
2023-01-13T07:45:19.517Z,3.33
2023-01-13T07:50:23.823Z,3.40
2023-01-13T07:55:26.201Z,4.35
2023-01-13T08:00:28.765Z,4.18
2023-01-13T08:05:32.540Z,3.40
2023-01-13T08:10:34.957Z,3.90
2023-01-13T08:15:37.441Z,5.38
2023-01-13T08:20:41.176Z,4.15
2023-01-13T08:25:43.610Z,3.42
2023-01-13T08:30:46.066Z,3.83
2023-01-13T08:35:52.590Z,4.68
2023-01-13T08:40:55.085Z,4.38
2023-01-13T08:45:58.390Z,4.03
2023-01-13T08:51:06.715Z,3.50
2023-01-13T08:56:10.881Z,3.67
2023-01-13T09:01:14.950Z,3.65
2023-01-13T09:06:18.915Z,4.65
2023-01-13T09:11:39.944Z,3.83
2023-01-13T09:16:42.401Z,4.25
2023-01-13T09:21:46.255Z,3.28
2023-01-13T09:26:48.717Z,3.67
2023-01-13T09:31:51.141Z,4.80
2023-01-13T09:36:55.011Z,4.78
2023-01-13T09:42:15.880Z,4.88
2023-01-13T09:47:21.888Z,3.78
2023-01-13T09:52:27.181Z,3.92
2023-01-13T09:57:31.071Z,4.00
2023-01-13T10:02:39.306Z,6.18
2023-01-13T10:07:48.871Z,4.30
2023-01-13T10:13:09.455Z,5.53
2023-01-13T10:18:14.706Z,5.03
2023-01-13T10:23:34.346Z,4.20
2023-01-13T10:28:36.790Z,4.57
2023-01-13T10:33:39.196Z,3.42
2023-01-13T10:38:43.775Z,4.43
2023-01-13T10:43:46.448Z,3.80
2023-01-13T10:48:52.960Z,4.03
2023-01-13T10:53:58.243Z,3.70
2023-01-13T10:59:12.926Z,3.90
2023-01-13T11:04:32.439Z,3.53
2023-01-13T11:09:36.224Z,5.15
2023-01-13T11:14:41.556Z,4.18
2023-01-13T11:19:48.659Z,3.33
2023-01-13T11:24:54.185Z,4.18
2023-01-13T11:30:00.952Z,3.38
2023-01-13T11:35:05.469Z,3.88
2023-01-13T11:40:14.491Z,5.88
2023-01-13T11:45:21.073Z,4.47
2023-01-13T11:50:26.972Z,4.82
2023-01-13T11:55:35.525Z,4.25
2023-01-13T12:00:40.831Z,4.40
2023-01-13T12:05:44.362Z,3.70
2023-01-13T12:10:56.428Z,3.97
2023-01-13T12:16:04.774Z,4.07
2023-01-13T12:21:12.963Z,3.33
2023-01-13T12:26:17.573Z,4.05
2023-01-13T12:31:20.531Z,4.50
2023-01-13T12:36:26.040Z,3.92
2023-01-13T12:41:34.250Z,3.67
2023-01-13T12:46:53.141Z,3.53
2023-01-13T12:52:18.263Z,3.47
2023-01-13T12:57:22.774Z,4.75
2023-01-13T13:02:26.914Z,4.28
2023-01-13T13:07:41.200Z,4.40
2023-01-13T13:13:16.128Z,4.00
2023-01-13T13:23:37.728Z,3.13
2023-01-13T13:28:45.357Z,3.42
2023-01-13T13:33:51.605Z,3.67
2023-01-13T13:39:19.211Z,4.03
2023-01-13T13:44:44.221Z,3.63
2023-01-13T13:49:50.169Z,3.88
2023-01-13T13:54:53.398Z,3.47
2023-01-13T13:59:58.990Z,3.85
2023-01-13T14:05:08.374Z,3.58
2023-01-13T14:10:14.261Z,3.55
2023-01-13T14:15:28.937Z,2.95
2023-01-13T14:20:31.605Z,3.22
2023-01-13T14:25:37.057Z,3.10
2023-01-13T14:30:41.076Z,3.15
2023-01-13T14:35:58.405Z,3.53
2023-01-13T14:41:09.943Z,3.30
2023-01-13T14:46:14.131Z,2.47
2023-01-13T14:51:22.531Z,2.50
2023-01-13T14:56:42.471Z,2.75
2023-01-13T15:01:46.312Z,2.60
2023-01-13T15:06:56.367Z,2.65
2023-01-13T15:11:58.898Z,2.75
2023-01-13T15:17:03.317Z,2.03
2023-01-13T15:22:05.733Z,2.42
2023-01-13T15:27:15.314Z,2.15
2023-01-13T15:32:20.232Z,2.65
2023-01-13T15:37:24.452Z,2.70
2023-01-13T15:42:44.373Z,2.35
2023-01-13T15:47:48.295Z,2.80
2023-01-13T15:52:50.699Z,2.38
2023-01-13T15:57:53.125Z,2.50
2023-01-13T16:02:56.882Z,2.40
2023-01-13T16:07:59.299Z,3.42
2023-01-13T16:13:01.789Z,3.00
2023-01-13T16:18:05.884Z,2.97
2023-01-13T16:23:08.348Z,1.98
2023-01-13T16:28:19.632Z,3.65
2023-01-13T16:33:23.416Z,4.40
2023-01-13T16:38:25.819Z,3.60
2023-01-13T16:43:28.240Z,3.20
2023-01-13T16:48:31.999Z,3.55
2023-01-13T16:53:34.451Z,4.15
2023-01-13T16:58:36.812Z,3.67
2023-01-13T17:03:40.564Z,3.25
2023-01-13T17:08:43.117Z,4.55
2023-01-13T17:13:45.538Z,2.77
2023-01-13T17:18:49.647Z,3.80
2023-01-13T17:23:52.531Z,3.22
2023-01-13T17:28:54.959Z,3.22
2023-01-13T17:33:58.916Z,3.85
2023-01-13T17:39:01.333Z,3.35
2023-01-13T17:44:03.761Z,4.22
2023-01-13T17:49:07.464Z,3.75
2023-01-13T17:54:12.045Z,3.17
2023-01-13T17:59:15.324Z,4.20
2023-01-13T18:04:19.650Z,3.67
2023-01-13T18:09:23.336Z,2.90
2023-01-13T18:14:25.760Z,2.65
2023-01-13T18:19:47.445Z,3.28
2023-01-13T18:25:07.294Z,3.30
2023-01-13T18:30:10.115Z,3.15
2023-01-13T18:35:13.916Z,3.72
2023-01-13T18:40:16.534Z,3.30
2023-01-13T18:45:19.407Z,3.37
2023-01-13T18:50:23.304Z,3.33
2023-01-13T18:55:27.101Z,2.40
2023-01-13T19:00:31.061Z,2.75
2023-01-13T19:05:35.396Z,2.80
2023-01-13T19:10:39.790Z,3.40
2023-01-13T19:15:42.221Z,3.72
2023-01-13T19:20:46.005Z,2.67
2023-01-13T19:25:48.412Z,3.28
2023-01-13T19:30:51.790Z,2.38
2023-01-13T19:40:59.429Z,2.70
2023-01-13T19:46:01.899Z,2.50
2023-01-13T19:51:04.723Z,3.90
2023-01-13T19:56:08.733Z,3.00
2023-01-13T20:01:16.122Z,2.30
2023-01-13T20:06:18.595Z,2.50
2023-01-13T20:11:22.358Z,2.42
2023-01-13T20:16:24.875Z,4.03
2023-01-13T20:21:27.456Z,3.25
2023-01-13T20:26:31.205Z,5.57
2023-01-13T20:31:33.663Z,3.80
2023-01-13T20:36:38.911Z,3.55
2023-01-13T20:42:01.203Z,3.78
2023-01-13T20:47:04.091Z,3.28
2023-01-13T20:52:09.608Z,3.30
2023-01-13T20:57:13.513Z,3.13
2023-01-13T21:02:17.311Z,3.38
2023-01-13T21:07:19.758Z,4.00
2023-01-13T21:12:40.839Z,3.65
2023-01-13T21:18:00.699Z,3.15
2023-01-13T21:23:03.921Z,3.47
2023-01-13T21:28:10.233Z,3.42
2023-01-13T21:33:13.771Z,3.00
2023-01-13T21:43:37.161Z,3.35
2023-01-13T21:48:39.538Z,2.85
2023-01-13T21:53:41.929Z,2.50
2023-01-13T21:58:45.767Z,2.20
2023-01-13T22:04:05.083Z,2.88
2023-01-13T22:09:07.685Z,1.90
2023-01-13T22:14:13.800Z,2.40
2023-01-13T22:19:18.113Z,2.50
2023-01-13T22:24:21.031Z,2.83
2023-01-13T22:29:24.784Z,2.58
2023-01-13T22:34:27.181Z,2.42
2023-01-13T22:39:29.858Z,2.42
2023-01-13T22:44:33.991Z,2.17
2023-01-13T22:49:36.466Z,3.30
2023-01-13T22:54:38.860Z,3.00
2023-01-13T22:59:42.683Z,3.83
2023-01-13T23:04:45.086Z,3.17
2023-01-13T23:09:47.874Z,2.50
2023-01-13T23:14:51.745Z,3.20
2023-01-13T23:19:54.183Z,2.85
2023-01-13T23:24:56.591Z,3.15
2023-01-13T23:30:00.277Z,4.20
2023-01-13T23:35:02.732Z,3.67
2023-01-13T23:40:05.572Z,4.30
2023-01-13T23:45:10.575Z,3.25
2023-01-13T23:50:12.945Z,3.20
2023-01-13T23:55:15.380Z,3.17
